sensor_id;sensor_type;location;lat;lon;timestamp;P1;durP1;ratioP1;P2;durP2;ratioP2
65871;SDS011;52653;50.080;21.992;2023-07-31T00:02:28;6.90;;;4.70;;
65871;SDS011;52653;50.080;21.992;2023-07-31T00:05:21;7.20;;;4.90;;
65871;SDS011;52653;50.080;21.992;2023-07-31T00:08:14;6.30;;;4.40;;
65871;SDS011;52653;50.080;21.992;2023-07-31T00:11:07;6.50;;;4.70;;
65871;SDS011;52653;50.080;21.992;2023-07-31T00:13:54;6.90;;;4.60;;
65871;SDS011;52653;50.080;21.992;2023-07-31T00:16:38;7.20;;;4.90;;
65871;SDS011;52653;50.080;21.992;2023-07-31T00:19:31;7.30;;;4.90;;
65871;SDS011;52653;50.080;21.992;2023-07-31T00:22:25;7.70;;;4.80;;
65871;SDS011;52653;50.080;21.992;2023-07-31T00:27:56;6.60;;;4.70;;
65871;SDS011;52653;50.080;21.992;2023-07-31T00:30:36;7.00;;;4.70;;
65871;SDS011;52653;50.080;21.992;2023-07-31T00:33:29;7.70;;;4.80;;
65871;SDS011;52653;50.080;21.992;2023-07-31T00:36:22;7.30;;;5.20;;
65871;SDS011;52653;50.080;21.992;2023-07-31T00:39:03;6.80;;;4.50;;
65871;SDS011;52653;50.080;21.992;2023-07-31T00:41:40;8.90;;;5.40;;
65871;SDS011;52653;50.080;21.992;2023-07-31T00:44:33;7.30;;;4.80;;
65871;SDS011;52653;50.080;21.992;2023-07-31T00:47:26;7.50;;;5.00;;
65871;SDS011;52653;50.080;21.992;2023-07-31T00:50:05;7.10;;;5.00;;
65871;SDS011;52653;50.080;21.992;2023-07-31T00:53:00;7.80;;;5.30;;
65871;SDS011;52653;50.080;21.992;2023-07-31T00:55:53;8.00;;;5.60;;
65871;SDS011;52653;50.080;21.992;2023-07-31T00:58:29;9.40;;;5.50;;
65871;SDS011;52653;50.080;21.992;2023-07-31T01:01:22;7.40;;;5.50;;
65871;SDS011;52653;50.080;21.992;2023-07-31T01:04:15;9.10;;;6.20;;
65871;SDS011;52653;50.080;21.992;2023-07-31T01:07:10;8.20;;;5.90;;
65871;SDS011;52653;50.080;21.992;2023-07-31T01:10:11;9.00;;;5.60;;
65871;SDS011;52653;50.080;21.992;2023-07-31T01:13:11;7.30;;;5.60;;
65871;SDS011;52653;50.080;21.992;2023-07-31T01:16:05;7.80;;;5.50;;
65871;SDS011;52653;50.080;21.992;2023-07-31T01:18:58;9.20;;;5.10;;
65871;SDS011;52653;50.080;21.992;2023-07-31T01:25:31;8.30;;;5.50;;
65871;SDS011;52653;50.080;21.992;2023-07-31T01:28:29;7.80;;;5.50;;
65871;SDS011;52653;50.080;21.992;2023-07-31T01:31:38;7.60;;;5.20;;
65871;SDS011;52653;50.080;21.992;2023-07-31T01:34:23;8.90;;;5.70;;
65871;SDS011;52653;50.080;21.992;2023-07-31T01:37:17;6.90;;;5.40;;
65871;SDS011;52653;50.080;21.992;2023-07-31T01:40:11;9.30;;;5.60;;
65871;SDS011;52653;50.080;21.992;2023-07-31T01:42:56;7.20;;;5.30;;
65871;SDS011;52653;50.080;21.992;2023-07-31T01:45:39;6.70;;;4.90;;
65871;SDS011;52653;50.080;21.992;2023-07-31T01:48:31;7.60;;;5.60;;
65871;SDS011;52653;50.080;21.992;2023-07-31T01:51:26;7.10;;;5.20;;
65871;SDS011;52653;50.080;21.992;2023-07-31T01:54:24;6.70;;;5.00;;
65871;SDS011;52653;50.080;21.992;2023-07-31T01:57:10;7.30;;;5.10;;
65871;SDS011;52653;50.080;21.992;2023-07-31T02:00:03;7.20;;;5.30;;
65871;SDS011;52653;50.080;21.992;2023-07-31T02:02:43;9.30;;;6.00;;
65871;SDS011;52653;50.080;21.992;2023-07-31T02:05:26;7.30;;;5.40;;
65871;SDS011;52653;50.080;21.992;2023-07-31T02:08:20;9.10;;;5.50;;
65871;SDS011;52653;50.080;21.992;2023-07-31T02:10:55;7.30;;;4.90;;
65871;SDS011;52653;50.080;21.992;2023-07-31T02:13:41;8.30;;;5.60;;
65871;SDS011;52653;50.080;21.992;2023-07-31T02:16:19;9.40;;;5.60;;
65871;SDS011;52653;50.080;21.992;2023-07-31T02:19:12;6.90;;;4.80;;
65871;SDS011;52653;50.080;21.992;2023-07-31T02:21:55;8.80;;;5.30;;
65871;SDS011;52653;50.080;21.992;2023-07-31T02:24:47;6.90;;;5.30;;
65871;SDS011;52653;50.080;21.992;2023-07-31T02:27:40;7.30;;;5.80;;
65871;SDS011;52653;50.080;21.992;2023-07-31T02:30:17;9.00;;;5.40;;
65871;SDS011;52653;50.080;21.992;2023-07-31T02:33:10;7.30;;;5.60;;
65871;SDS011;52653;50.080;21.992;2023-07-31T02:36:03;8.10;;;5.50;;
65871;SDS011;52653;50.080;21.992;2023-07-31T02:38:56;8.70;;;5.40;;
65871;SDS011;52653;50.080;21.992;2023-07-31T02:41:49;8.70;;;6.10;;
65871;SDS011;52653;50.080;21.992;2023-07-31T02:44:34;8.50;;;6.00;;
65871;SDS011;52653;50.080;21.992;2023-07-31T02:47:28;7.90;;;5.10;;
65871;SDS011;52653;50.080;21.992;2023-07-31T02:50:21;7.70;;;5.60;;
65871;SDS011;52653;50.080;21.992;2023-07-31T02:53:14;6.90;;;5.10;;
65871;SDS011;52653;50.080;21.992;2023-07-31T02:56:07;7.60;;;5.70;;
65871;SDS011;52653;50.080;21.992;2023-07-31T02:58:59;8.80;;;5.50;;
65871;SDS011;52653;50.080;21.992;2023-07-31T03:01:51;7.50;;;5.60;;
65871;SDS011;52653;50.080;21.992;2023-07-31T03:04:44;8.00;;;5.10;;
65871;SDS011;52653;50.080;21.992;2023-07-31T03:07:37;7.80;;;5.70;;
65871;SDS011;52653;50.080;21.992;2023-07-31T03:10:30;6.90;;;5.30;;
65871;SDS011;52653;50.080;21.992;2023-07-31T03:13:17;7.30;;;5.70;;
65871;SDS011;52653;50.080;21.992;2023-07-31T03:16:03;7.20;;;5.60;;
65871;SDS011;52653;50.080;21.992;2023-07-31T03:18:57;7.90;;;5.80;;
65871;SDS011;52653;50.080;21.992;2023-07-31T03:21:49;8.90;;;6.10;;
65871;SDS011;52653;50.080;21.992;2023-07-31T03:24:42;8.20;;;6.10;;
65871;SDS011;52653;50.080;21.992;2023-07-31T03:27:35;7.70;;;5.40;;
65871;SDS011;52653;50.080;21.992;2023-07-31T03:30:25;8.40;;;5.50;;
65871;SDS011;52653;50.080;21.992;2023-07-31T03:33:17;7.10;;;5.20;;
65871;SDS011;52653;50.080;21.992;2023-07-31T03:36:03;6.60;;;5.10;;
65871;SDS011;52653;50.080;21.992;2023-07-31T03:38:57;9.10;;;5.50;;
65871;SDS011;52653;50.080;21.992;2023-07-31T03:41:50;7.50;;;5.60;;
65871;SDS011;52653;50.080;21.992;2023-07-31T03:44:42;11.60;;;7.00;;
65871;SDS011;52653;50.080;21.992;2023-07-31T03:47:36;9.80;;;6.80;;
65871;SDS011;52653;50.080;21.992;2023-07-31T03:50:30;7.50;;;5.40;;
65871;SDS011;52653;50.080;21.992;2023-07-31T03:53:05;7.40;;;5.30;;
65871;SDS011;52653;50.080;21.992;2023-07-31T03:55:58;9.60;;;5.50;;
65871;SDS011;52653;50.080;21.992;2023-07-31T03:58:43;7.80;;;5.30;;
65871;SDS011;52653;50.080;21.992;2023-07-31T04:01:36;8.50;;;5.30;;
65871;SDS011;52653;50.080;21.992;2023-07-31T04:04:29;7.90;;;5.80;;
65871;SDS011;52653;50.080;21.992;2023-07-31T04:07:24;8.00;;;5.60;;
65871;SDS011;52653;50.080;21.992;2023-07-31T04:10:08;7.50;;;5.20;;
65871;SDS011;52653;50.080;21.992;2023-07-31T04:13:03;7.90;;;5.30;;
65871;SDS011;52653;50.080;21.992;2023-07-31T04:15:56;7.50;;;5.40;;
65871;SDS011;52653;50.080;21.992;2023-07-31T04:18:49;7.40;;;5.00;;
65871;SDS011;52653;50.080;21.992;2023-07-31T04:21:42;8.00;;;4.90;;
65871;SDS011;52653;50.080;21.992;2023-07-31T04:24:24;8.00;;;5.10;;
65871;SDS011;52653;50.080;21.992;2023-07-31T04:27:19;7.90;;;4.60;;
65871;SDS011;52653;50.080;21.992;2023-07-31T04:30:08;8.20;;;4.40;;
65871;SDS011;52653;50.080;21.992;2023-07-31T04:32:47;7.50;;;4.70;;
65871;SDS011;52653;50.080;21.992;2023-07-31T04:35:32;6.80;;;4.70;;
65871;SDS011;52653;50.080;21.992;2023-07-31T04:38:26;8.60;;;4.50;;
65871;SDS011;52653;50.080;21.992;2023-07-31T04:41:19;7.40;;;4.60;;
65871;SDS011;52653;50.080;21.992;2023-07-31T04:44:00;6.30;;;4.40;;
65871;SDS011;52653;50.080;21.992;2023-07-31T04:46:54;10.00;;;4.60;;
65871;SDS011;52653;50.080;21.992;2023-07-31T04:49:27;7.40;;;4.50;;
65871;SDS011;52653;50.080;21.992;2023-07-31T04:52:12;8.40;;;4.60;;
65871;SDS011;52653;50.080;21.992;2023-07-31T04:54:59;8.40;;;4.10;;
65871;SDS011;52653;50.080;21.992;2023-07-31T04:57:46;8.70;;;4.20;;
65871;SDS011;52653;50.080;21.992;2023-07-31T05:00:39;6.80;;;4.00;;
65871;SDS011;52653;50.080;21.992;2023-07-31T05:03:24;8.00;;;4.50;;
65871;SDS011;52653;50.080;21.992;2023-07-31T05:06:17;7.00;;;3.80;;
65871;SDS011;52653;50.080;21.992;2023-07-31T05:09:03;6.60;;;4.20;;
65871;SDS011;52653;50.080;21.992;2023-07-31T05:11:56;6.60;;;3.90;;
65871;SDS011;52653;50.080;21.992;2023-07-31T05:14:49;8.90;;;4.30;;
65871;SDS011;52653;50.080;21.992;2023-07-31T05:17:36;7.80;;;4.40;;
65871;SDS011;52653;50.080;21.992;2023-07-31T05:20:18;8.50;;;4.30;;
65871;SDS011;52653;50.080;21.992;2023-07-31T05:23:12;6.70;;;4.50;;
65871;SDS011;52653;50.080;21.992;2023-07-31T05:25:47;8.80;;;5.00;;
65871;SDS011;52653;50.080;21.992;2023-07-31T05:28:39;9.10;;;5.00;;
65871;SDS011;52653;50.080;21.992;2023-07-31T05:31:12;6.60;;;4.40;;
65871;SDS011;52653;50.080;21.992;2023-07-31T05:33:58;7.20;;;4.90;;
65871;SDS011;52653;50.080;21.992;2023-07-31T05:36:51;7.40;;;4.70;;
65871;SDS011;52653;50.080;21.992;2023-07-31T05:39:45;7.20;;;4.70;;
65871;SDS011;52653;50.080;21.992;2023-07-31T05:42:26;8.30;;;4.80;;
65871;SDS011;52653;50.080;21.992;2023-07-31T05:45:08;9.20;;;5.10;;
65871;SDS011;52653;50.080;21.992;2023-07-31T05:47:58;6.90;;;4.70;;
65871;SDS011;52653;50.080;21.992;2023-07-31T05:50:51;7.60;;;4.40;;
65871;SDS011;52653;50.080;21.992;2023-07-31T05:53:46;7.00;;;4.60;;
65871;SDS011;52653;50.080;21.992;2023-07-31T05:56:39;6.80;;;4.20;;
65871;SDS011;52653;50.080;21.992;2023-07-31T05:59:26;7.30;;;4.20;;
65871;SDS011;52653;50.080;21.992;2023-07-31T06:02:20;5.60;;;4.10;;
65871;SDS011;52653;50.080;21.992;2023-07-31T06:05:15;6.90;;;3.60;;
65871;SDS011;52653;50.080;21.992;2023-07-31T06:08:08;5.50;;;3.90;;
65871;SDS011;52653;50.080;21.992;2023-07-31T06:11:01;5.40;;;3.80;;
65871;SDS011;52653;50.080;21.992;2023-07-31T06:13:46;8.00;;;4.10;;
65871;SDS011;52653;50.080;21.992;2023-07-31T06:16:39;6.50;;;3.90;;
65871;SDS011;52653;50.080;21.992;2023-07-31T06:19:33;6.40;;;3.50;;
65871;SDS011;52653;50.080;21.992;2023-07-31T06:22:26;5.30;;;3.90;;
65871;SDS011;52653;50.080;21.992;2023-07-31T06:25:19;6.30;;;3.50;;
65871;SDS011;52653;50.080;21.992;2023-07-31T06:28:12;6.90;;;3.80;;
65871;SDS011;52653;50.080;21.992;2023-07-31T06:31:05;6.10;;;3.70;;
65871;SDS011;52653;50.080;21.992;2023-07-31T06:33:58;7.30;;;3.40;;
65871;SDS011;52653;50.080;21.992;2023-07-31T06:36:51;6.50;;;3.70;;
65871;SDS011;52653;50.080;21.992;2023-07-31T06:39:27;5.40;;;3.80;;
65871;SDS011;52653;50.080;21.992;2023-07-31T06:42:06;6.90;;;3.50;;
65871;SDS011;52653;50.080;21.992;2023-07-31T06:44:59;7.90;;;4.00;;
65871;SDS011;52653;50.080;21.992;2023-07-31T06:47:53;7.90;;;3.70;;
65871;SDS011;52653;50.080;21.992;2023-07-31T06:50:31;9.30;;;3.80;;
65871;SDS011;52653;50.080;21.992;2023-07-31T06:53:06;7.30;;;4.00;;
65871;SDS011;52653;50.080;21.992;2023-07-31T06:55:53;5.90;;;3.60;;
65871;SDS011;52653;50.080;21.992;2023-07-31T06:58:46;6.60;;;3.90;;
65871;SDS011;52653;50.080;21.992;2023-07-31T07:01:23;6.70;;;3.90;;
65871;SDS011;52653;50.080;21.992;2023-07-31T07:04:17;6.50;;;4.00;;
65871;SDS011;52653;50.080;21.992;2023-07-31T07:06:50;5.60;;;3.70;;
65871;SDS011;52653;50.080;21.992;2023-07-31T07:09:41;8.00;;;4.10;;
65871;SDS011;52653;50.080;21.992;2023-07-31T07:12:35;6.80;;;4.20;;
65871;SDS011;52653;50.080;21.992;2023-07-31T07:15:21;6.30;;;4.10;;
65871;SDS011;52653;50.080;21.992;2023-07-31T07:17:59;6.40;;;4.40;;
65871;SDS011;52653;50.080;21.992;2023-07-31T07:20:53;7.60;;;4.40;;
65871;SDS011;52653;50.080;21.992;2023-07-31T07:23:38;6.80;;;5.10;;
65871;SDS011;52653;50.080;21.992;2023-07-31T07:26:30;6.70;;;4.60;;
65871;SDS011;52653;50.080;21.992;2023-07-31T07:29:14;8.10;;;4.20;;
65871;SDS011;52653;50.080;21.992;2023-07-31T07:32:00;5.10;;;4.00;;
65871;SDS011;52653;50.080;21.992;2023-07-31T07:34:53;6.70;;;3.80;;
65871;SDS011;52653;50.080;21.992;2023-07-31T07:37:44;6.30;;;3.80;;
65871;SDS011;52653;50.080;21.992;2023-07-31T07:40:34;8.20;;;5.40;;
65871;SDS011;52653;50.080;21.992;2023-07-31T07:43:23;8.60;;;5.00;;
65871;SDS011;52653;50.080;21.992;2023-07-31T07:46:05;9.10;;;6.20;;
65871;SDS011;52653;50.080;21.992;2023-07-31T07:48:52;7.60;;;5.00;;
65871;SDS011;52653;50.080;21.992;2023-07-31T07:51:30;5.30;;;3.20;;
65871;SDS011;52653;50.080;21.992;2023-07-31T07:54:23;7.70;;;3.60;;
65871;SDS011;52653;50.080;21.992;2023-07-31T07:57:06;5.60;;;3.30;;
65871;SDS011;52653;50.080;21.992;2023-07-31T07:59:59;7.40;;;3.60;;
65871;SDS011;52653;50.080;21.992;2023-07-31T08:02:42;4.50;;;3.30;;
65871;SDS011;52653;50.080;21.992;2023-07-31T08:05:35;4.70;;;3.30;;
65871;SDS011;52653;50.080;21.992;2023-07-31T08:08:18;4.90;;;3.00;;
65871;SDS011;52653;50.080;21.992;2023-07-31T08:11:00;7.70;;;3.50;;
65871;SDS011;52653;50.080;21.992;2023-07-31T08:13:36;5.30;;;3.50;;
65871;SDS011;52653;50.080;21.992;2023-07-31T08:16:28;5.90;;;3.30;;
65871;SDS011;52653;50.080;21.992;2023-07-31T08:19:13;6.10;;;3.00;;
65871;SDS011;52653;50.080;21.992;2023-07-31T08:22:06;4.80;;;3.20;;
65871;SDS011;52653;50.080;21.992;2023-07-31T08:25:00;5.90;;;3.50;;
65871;SDS011;52653;50.080;21.992;2023-07-31T08:27:53;4.80;;;3.40;;
65871;SDS011;52653;50.080;21.992;2023-07-31T08:30:39;5.80;;;3.40;;
65871;SDS011;52653;50.080;21.992;2023-07-31T08:33:12;5.90;;;3.20;;
65871;SDS011;52653;50.080;21.992;2023-07-31T08:35:48;4.80;;;3.50;;
65871;SDS011;52653;50.080;21.992;2023-07-31T08:38:22;4.90;;;3.60;;
65871;SDS011;52653;50.080;21.992;2023-07-31T08:41:07;4.70;;;3.70;;
65871;SDS011;52653;50.080;21.992;2023-07-31T08:44:00;7.50;;;3.70;;
65871;SDS011;52653;50.080;21.992;2023-07-31T08:46:37;4.80;;;3.70;;
65871;SDS011;52653;50.080;21.992;2023-07-31T08:49:24;5.50;;;4.00;;
65871;SDS011;52653;50.080;21.992;2023-07-31T08:52:20;7.40;;;3.70;;
65871;SDS011;52653;50.080;21.992;2023-07-31T08:55:14;7.40;;;4.80;;
65871;SDS011;52653;50.080;21.992;2023-07-31T08:58:08;5.40;;;4.60;;
65871;SDS011;52653;50.080;21.992;2023-07-31T09:00:48;8.70;;;4.70;;
65871;SDS011;52653;50.080;21.992;2023-07-31T09:03:43;5.50;;;4.20;;
65871;SDS011;52653;50.080;21.992;2023-07-31T09:06:28;6.60;;;4.30;;
65871;SDS011;52653;50.080;21.992;2023-07-31T09:09:13;6.00;;;4.30;;
65871;SDS011;52653;50.080;21.992;2023-07-31T09:11:48;5.20;;;4.10;;
65871;SDS011;52653;50.080;21.992;2023-07-31T09:14:42;6.90;;;4.00;;
65871;SDS011;52653;50.080;21.992;2023-07-31T09:17:38;5.30;;;4.20;;
65871;SDS011;52653;50.080;21.992;2023-07-31T09:20:31;5.40;;;4.10;;
65871;SDS011;52653;50.080;21.992;2023-07-31T09:23:24;5.70;;;4.20;;
65871;SDS011;52653;50.080;21.992;2023-07-31T09:26:33;5.90;;;4.30;;
65871;SDS011;52653;50.080;21.992;2023-07-31T09:29:19;6.40;;;4.70;;
65871;SDS011;52653;50.080;21.992;2023-07-31T09:32:02;7.20;;;4.40;;
65871;SDS011;52653;50.080;21.992;2023-07-31T09:34:54;5.80;;;4.70;;
65871;SDS011;52653;50.080;21.992;2023-07-31T09:40:33;5.00;;;4.00;;
65871;SDS011;52653;50.080;21.992;2023-07-31T09:43:23;5.60;;;4.70;;
65871;SDS011;52653;50.080;21.992;2023-07-31T09:46:16;5.60;;;4.60;;
65871;SDS011;52653;50.080;21.992;2023-07-31T09:49:15;7.10;;;4.40;;
65871;SDS011;52653;50.080;21.992;2023-07-31T09:52:11;8.20;;;4.90;;
65871;SDS011;52653;50.080;21.992;2023-07-31T09:54:57;5.80;;;5.00;;
65871;SDS011;52653;50.080;21.992;2023-07-31T09:57:50;6.70;;;5.10;;
65871;SDS011;52653;50.080;21.992;2023-07-31T10:00:46;6.70;;;5.20;;
65871;SDS011;52653;50.080;21.992;2023-07-31T10:03:40;7.20;;;5.80;;
65871;SDS011;52653;50.080;21.992;2023-07-31T10:06:21;6.80;;;5.30;;
65871;SDS011;52653;50.080;21.992;2023-07-31T10:09:10;6.50;;;5.70;;
65871;SDS011;52653;50.080;21.992;2023-07-31T10:12:06;7.60;;;5.20;;
65871;SDS011;52653;50.080;21.992;2023-07-31T10:15:02;6.60;;;5.60;;
65871;SDS011;52653;50.080;21.992;2023-07-31T10:17:56;5.50;;;4.90;;
65871;SDS011;52653;50.080;21.992;2023-07-31T10:20:51;7.80;;;5.40;;
65871;SDS011;52653;50.080;21.992;2023-07-31T10:23:28;7.80;;;5.40;;
65871;SDS011;52653;50.080;21.992;2023-07-31T10:26:04;6.20;;;5.50;;
65871;SDS011;52653;50.080;21.992;2023-07-31T10:28:58;7.40;;;4.90;;
65871;SDS011;52653;50.080;21.992;2023-07-31T10:31:41;7.60;;;4.70;;
65871;SDS011;52653;50.080;21.992;2023-07-31T10:34:35;7.20;;;4.30;;
65871;SDS011;52653;50.080;21.992;2023-07-31T10:37:20;7.30;;;4.80;;
65871;SDS011;52653;50.080;21.992;2023-07-31T10:40:02;5.60;;;4.10;;
65871;SDS011;52653;50.080;21.992;2023-07-31T10:42:47;6.70;;;4.50;;
65871;SDS011;52653;50.080;21.992;2023-07-31T10:45:37;8.20;;;5.40;;
65871;SDS011;52653;50.080;21.992;2023-07-31T10:48:16;8.20;;;5.50;;
65871;SDS011;52653;50.080;21.992;2023-07-31T10:51:14;6.40;;;4.70;;
65871;SDS011;52653;50.080;21.992;2023-07-31T10:54:12;6.60;;;4.40;;
65871;SDS011;52653;50.080;21.992;2023-07-31T10:56:51;7.00;;;4.50;;
65871;SDS011;52653;50.080;21.992;2023-07-31T10:59:35;6.70;;;4.80;;
65871;SDS011;52653;50.080;21.992;2023-07-31T11:02:26;5.80;;;4.30;;
65871;SDS011;52653;50.080;21.992;2023-07-31T11:05:22;5.30;;;4.50;;
65871;SDS011;52653;50.080;21.992;2023-07-31T11:08:41;5.50;;;4.50;;
65871;SDS011;52653;50.080;21.992;2023-07-31T11:11:18;5.40;;;4.20;;
65871;SDS011;52653;50.080;21.992;2023-07-31T11:14:11;7.30;;;4.20;;
65871;SDS011;52653;50.080;21.992;2023-07-31T11:16:44;6.90;;;4.20;;
65871;SDS011;52653;50.080;21.992;2023-07-31T11:19:26;6.50;;;3.50;;
65871;SDS011;52653;50.080;21.992;2023-07-31T11:22:01;4.60;;;3.10;;
65871;SDS011;52653;50.080;21.992;2023-07-31T11:24:35;4.50;;;3.10;;
65871;SDS011;52653;50.080;21.992;2023-07-31T11:27:17;5.00;;;3.40;;
65871;SDS011;52653;50.080;21.992;2023-07-31T11:29:52;4.50;;;2.90;;
65871;SDS011;52653;50.080;21.992;2023-07-31T11:32:38;5.00;;;3.10;;
65871;SDS011;52653;50.080;21.992;2023-07-31T11:35:31;4.60;;;2.80;;
65871;SDS011;52653;50.080;21.992;2023-07-31T11:38:25;4.80;;;3.20;;
65871;SDS011;52653;50.080;21.992;2023-07-31T11:41:02;5.40;;;3.20;;
65871;SDS011;52653;50.080;21.992;2023-07-31T11:44:00;4.40;;;3.10;;
65871;SDS011;52653;50.080;21.992;2023-07-31T11:47:02;12.30;;;3.40;;
65871;SDS011;52653;50.080;21.992;2023-07-31T11:49:55;6.00;;;3.20;;
65871;SDS011;52653;50.080;21.992;2023-07-31T11:52:41;7.60;;;3.10;;
65871;SDS011;52653;50.080;21.992;2023-07-31T11:55:27;3.90;;;3.10;;
65871;SDS011;52653;50.080;21.992;2023-07-31T11:58:04;5.20;;;3.20;;
65871;SDS011;52653;50.080;21.992;2023-07-31T12:00:41;7.40;;;3.10;;
65871;SDS011;52653;50.080;21.992;2023-07-31T12:03:27;6.60;;;3.40;;
65871;SDS011;52653;50.080;21.992;2023-07-31T12:06:21;5.60;;;3.10;;
65871;SDS011;52653;50.080;21.992;2023-07-31T12:09:13;4.40;;;3.00;;
65871;SDS011;52653;50.080;21.992;2023-07-31T12:11:58;4.40;;;2.90;;
65871;SDS011;52653;50.080;21.992;2023-07-31T12:14:34;7.90;;;4.10;;
65871;SDS011;52653;50.080;21.992;2023-07-31T12:17:32;4.80;;;3.20;;
65871;SDS011;52653;50.080;21.992;2023-07-31T12:20:19;6.10;;;3.30;;
65871;SDS011;52653;50.080;21.992;2023-07-31T12:23:01;4.50;;;3.40;;
65871;SDS011;52653;50.080;21.992;2023-07-31T12:25:35;5.20;;;3.40;;
65871;SDS011;52653;50.080;21.992;2023-07-31T12:28:14;7.60;;;4.70;;
65871;SDS011;52653;50.080;21.992;2023-07-31T12:31:08;4.80;;;3.30;;
65871;SDS011;52653;50.080;21.992;2023-07-31T12:33:55;5.20;;;3.00;;
65871;SDS011;52653;50.080;21.992;2023-07-31T12:36:48;6.30;;;3.70;;
65871;SDS011;52653;50.080;21.992;2023-07-31T12:42:18;4.60;;;3.30;;
65871;SDS011;52653;50.080;21.992;2023-07-31T12:45:04;5.30;;;3.40;;
65871;SDS011;52653;50.080;21.992;2023-07-31T12:47:41;7.70;;;3.30;;
65871;SDS011;52653;50.080;21.992;2023-07-31T12:50:34;6.00;;;3.10;;
65871;SDS011;52653;50.080;21.992;2023-07-31T12:53:22;5.00;;;3.30;;
65871;SDS011;52653;50.080;21.992;2023-07-31T12:55:58;4.80;;;3.00;;
65871;SDS011;52653;50.080;21.992;2023-07-31T12:58:50;4.70;;;3.10;;
65871;SDS011;52653;50.080;21.992;2023-07-31T13:01:34;5.50;;;2.80;;
65871;SDS011;52653;50.080;21.992;2023-07-31T13:04:29;5.10;;;3.40;;
65871;SDS011;52653;50.080;21.992;2023-07-31T13:07:01;4.60;;;3.10;;
65871;SDS011;52653;50.080;21.992;2023-07-31T13:09:43;4.60;;;3.30;;
65871;SDS011;52653;50.080;21.992;2023-07-31T13:12:35;5.00;;;3.10;;
65871;SDS011;52653;50.080;21.992;2023-07-31T13:15:17;5.00;;;3.20;;
65871;SDS011;52653;50.080;21.992;2023-07-31T13:18:00;10.30;;;3.80;;
65871;SDS011;52653;50.080;21.992;2023-07-31T13:20:47;5.90;;;2.90;;
65871;SDS011;52653;50.080;21.992;2023-07-31T13:23:40;4.90;;;3.00;;
65871;SDS011;52653;50.080;21.992;2023-07-31T13:26:33;4.20;;;2.50;;
65871;SDS011;52653;50.080;21.992;2023-07-31T13:29:27;4.20;;;2.50;;
65871;SDS011;52653;50.080;21.992;2023-07-31T13:32:20;4.00;;;2.30;;
65871;SDS011;52653;50.080;21.992;2023-07-31T13:35:13;8.20;;;2.60;;
65871;SDS011;52653;50.080;21.992;2023-07-31T13:38:06;6.10;;;2.50;;
65871;SDS011;52653;50.080;21.992;2023-07-31T13:40:52;4.10;;;2.40;;
65871;SDS011;52653;50.080;21.992;2023-07-31T13:43:56;5.60;;;2.30;;
65871;SDS011;52653;50.080;21.992;2023-07-31T13:46:49;5.30;;;2.30;;
65871;SDS011;52653;50.080;21.992;2023-07-31T13:49:42;4.40;;;2.30;;
65871;SDS011;52653;50.080;21.992;2023-07-31T13:52:34;3.70;;;2.30;;
65871;SDS011;52653;50.080;21.992;2023-07-31T13:55:20;3.80;;;2.50;;
65871;SDS011;52653;50.080;21.992;2023-07-31T13:58:05;4.90;;;2.30;;
65871;SDS011;52653;50.080;21.992;2023-07-31T14:00:49;4.20;;;2.40;;
65871;SDS011;52653;50.080;21.992;2023-07-31T14:03:36;4.20;;;2.20;;
65871;SDS011;52653;50.080;21.992;2023-07-31T14:06:20;4.90;;;2.60;;
65871;SDS011;52653;50.080;21.992;2023-07-31T14:09:13;4.80;;;2.50;;
65871;SDS011;52653;50.080;21.992;2023-07-31T14:12:07;8.70;;;3.00;;
65871;SDS011;52653;50.080;21.992;2023-07-31T14:14:53;5.80;;;2.50;;
65871;SDS011;52653;50.080;21.992;2023-07-31T14:17:46;4.30;;;2.30;;
65871;SDS011;52653;50.080;21.992;2023-07-31T14:20:33;4.10;;;2.20;;
65871;SDS011;52653;50.080;21.992;2023-07-31T14:23:24;4.90;;;2.40;;
65871;SDS011;52653;50.080;21.992;2023-07-31T14:26:07;4.30;;;2.30;;
65871;SDS011;52653;50.080;21.992;2023-07-31T14:28:53;3.70;;;2.40;;
65871;SDS011;52653;50.080;21.992;2023-07-31T14:31:33;5.60;;;2.60;;
65871;SDS011;52653;50.080;21.992;2023-07-31T14:34:27;6.60;;;2.40;;
65871;SDS011;52653;50.080;21.992;2023-07-31T14:37:14;5.00;;;2.70;;
65871;SDS011;52653;50.080;21.992;2023-07-31T14:40:08;5.60;;;2.80;;
65871;SDS011;52653;50.080;21.992;2023-07-31T14:43:04;4.70;;;2.40;;
65871;SDS011;52653;50.080;21.992;2023-07-31T14:45:56;4.90;;;2.60;;
65871;SDS011;52653;50.080;21.992;2023-07-31T14:48:49;6.80;;;2.80;;
65871;SDS011;52653;50.080;21.992;2023-07-31T14:51:42;3.60;;;2.20;;
65871;SDS011;52653;50.080;21.992;2023-07-31T14:54:37;6.40;;;3.30;;
65871;SDS011;52653;50.080;21.992;2023-07-31T14:57:30;3.40;;;2.50;;
65871;SDS011;52653;50.080;21.992;2023-07-31T15:00:26;6.00;;;2.80;;
65871;SDS011;52653;50.080;21.992;2023-07-31T15:03:18;5.90;;;2.90;;
65871;SDS011;52653;50.080;21.992;2023-07-31T15:05:54;4.20;;;2.60;;
65871;SDS011;52653;50.080;21.992;2023-07-31T15:08:46;6.40;;;3.10;;
65871;SDS011;52653;50.080;21.992;2023-07-31T15:11:19;5.00;;;3.00;;
65871;SDS011;52653;50.080;21.992;2023-07-31T15:14:12;5.10;;;2.70;;
65871;SDS011;52653;50.080;21.992;2023-07-31T15:16:56;5.40;;;3.20;;
65871;SDS011;52653;50.080;21.992;2023-07-31T15:19:42;4.70;;;3.10;;
65871;SDS011;52653;50.080;21.992;2023-07-31T15:22:22;5.60;;;2.80;;
65871;SDS011;52653;50.080;21.992;2023-07-31T15:25:10;5.00;;;2.90;;
65871;SDS011;52653;50.080;21.992;2023-07-31T15:27:56;4.20;;;2.90;;
65871;SDS011;52653;50.080;21.992;2023-07-31T15:30:49;4.80;;;2.70;;
65871;SDS011;52653;50.080;21.992;2023-07-31T15:33:41;3.70;;;2.50;;
65871;SDS011;52653;50.080;21.992;2023-07-31T15:36:34;5.00;;;2.80;;
65871;SDS011;52653;50.080;21.992;2023-07-31T15:39:20;4.50;;;3.20;;
65871;SDS011;52653;50.080;21.992;2023-07-31T15:42:13;4.50;;;2.80;;
65871;SDS011;52653;50.080;21.992;2023-07-31T15:45:07;5.70;;;2.90;;
65871;SDS011;52653;50.080;21.992;2023-07-31T15:47:54;5.20;;;3.00;;
65871;SDS011;52653;50.080;21.992;2023-07-31T15:50:47;7.00;;;3.30;;
65871;SDS011;52653;50.080;21.992;2023-07-31T15:53:40;4.10;;;2.70;;
65871;SDS011;52653;50.080;21.992;2023-07-31T15:56:33;5.20;;;2.90;;
65871;SDS011;52653;50.080;21.992;2023-07-31T15:59:16;4.00;;;2.80;;
65871;SDS011;52653;50.080;21.992;2023-07-31T16:01:59;5.40;;;2.90;;
65871;SDS011;52653;50.080;21.992;2023-07-31T16:04:53;4.70;;;3.10;;
65871;SDS011;52653;50.080;21.992;2023-07-31T16:07:43;4.90;;;2.60;;
65871;SDS011;52653;50.080;21.992;2023-07-31T16:10:36;3.90;;;2.50;;
65871;SDS011;52653;50.080;21.992;2023-07-31T16:13:28;4.60;;;2.80;;
65871;SDS011;52653;50.080;21.992;2023-07-31T16:16:21;5.60;;;2.80;;
65871;SDS011;52653;50.080;21.992;2023-07-31T16:19:17;4.90;;;2.60;;
65871;SDS011;52653;50.080;21.992;2023-07-31T16:22:16;4.90;;;2.80;;
65871;SDS011;52653;50.080;21.992;2023-07-31T16:25:09;5.40;;;2.60;;
65871;SDS011;52653;50.080;21.992;2023-07-31T16:28:02;5.00;;;2.50;;
65871;SDS011;52653;50.080;21.992;2023-07-31T16:30:40;5.20;;;2.70;;
65871;SDS011;52653;50.080;21.992;2023-07-31T16:33:17;7.50;;;2.60;;
65871;SDS011;52653;50.080;21.992;2023-07-31T16:36:13;5.40;;;2.80;;
65871;SDS011;52653;50.080;21.992;2023-07-31T16:38:50;4.90;;;2.60;;
65871;SDS011;52653;50.080;21.992;2023-07-31T16:41:43;6.30;;;2.70;;
65871;SDS011;52653;50.080;21.992;2023-07-31T16:44:20;5.40;;;2.60;;
65871;SDS011;52653;50.080;21.992;2023-07-31T16:47:14;4.30;;;2.70;;
65871;SDS011;52653;50.080;21.992;2023-07-31T16:49:59;5.90;;;3.10;;
65871;SDS011;52653;50.080;21.992;2023-07-31T16:52:35;5.50;;;2.80;;